createdAt,value
2018-08-17T00:00:31.155Z,98053.10
2018-08-17T00:05:24.251Z,98039.41
2018-08-17T00:10:17.396Z,98037.31
2018-08-17T00:15:10.455Z,98034.87
2018-08-17T00:20:03.611Z,98034.71
2018-08-17T00:24:56.643Z,98025.50
2018-08-17T00:29:49.789Z,98024.39
2018-08-17T00:34:42.777Z,98027.28
2018-08-17T00:39:35.734Z,98025.18
2018-08-17T00:44:28.841Z,98022.68
2018-08-17T00:49:21.839Z,98016.14
2018-08-17T00:54:14.899Z,98018.00
2018-08-17T00:59:07.958Z,98020.51
2018-08-17T01:04:01.042Z,98018.34
2018-08-17T01:08:54.071Z,98013.59
2018-08-17T01:13:47.371Z,98012.63
2018-08-17T01:18:40.409Z,98010.80
2018-08-17T01:23:33.584Z,98009.23
2018-08-17T01:28:26.709Z,98002.80
2018-08-17T01:33:19.822Z,98018.61
2018-08-17T01:38:12.839Z,98007.18
2018-08-17T01:43:06.110Z,98019.19
2018-08-17T01:47:59.093Z,97997.59
2018-08-17T01:52:52.799Z,97989.95
2018-08-17T01:57:45.803Z,97994.02
2018-08-17T02:02:40.575Z,97996.28
2018-08-17T02:07:33.864Z,98007.56
2018-08-17T02:12:27.221Z,97995.80
2018-08-17T02:17:20.335Z,97983.79
2018-08-17T02:22:13.403Z,97985.55
2018-08-17T02:27:06.561Z,97976.38
2018-08-17T02:31:59.593Z,97999.32
2018-08-17T02:36:52.624Z,98001.08
2018-08-17T02:41:45.707Z,98005.31
2018-08-17T02:46:38.791Z,97999.16
2018-08-17T02:51:31.716Z,97993.92
2018-08-17T02:56:24.654Z,97992.88
2018-08-17T03:01:17.678Z,97990.59
2018-08-17T03:06:10.729Z,97998.77
2018-08-17T03:11:03.939Z,97993.12
2018-08-17T03:15:56.963Z,97990.40
2018-08-17T03:20:50.106Z,97990.33
2018-08-17T03:25:43.398Z,97994.46
2018-08-17T03:30:36.524Z,98008.86
2018-08-17T03:35:29.650Z,98002.22
2018-08-17T03:40:22.630Z,98001.63
2018-08-17T03:45:15.641Z,98005.53
2018-08-17T03:50:08.751Z,98003.59
2018-08-17T03:55:01.976Z,98011.17
2018-08-17T03:59:55.068Z,98027.48
2018-08-17T04:04:48.097Z,98012.38
2018-08-17T04:09:41.217Z,98013.40
2018-08-17T04:14:34.229Z,98013.84
2018-08-17T04:19:27.290Z,98014.38
2018-08-17T04:24:20.414Z,98022.67
2018-08-17T04:29:13.635Z,98015.67
2018-08-17T04:34:06.745Z,98011.83
2018-08-17T04:38:59.766Z,98020.77
2018-08-17T04:43:53.094Z,98014.30
2018-08-17T04:48:46.045Z,98028.09
2018-08-17T04:53:39.045Z,98020.48
2018-08-17T04:58:32.131Z,98012.13
2018-08-17T05:03:25.102Z,98028.77
2018-08-17T05:08:18.311Z,98018.33
2018-08-17T05:13:11.277Z,98052.46
2018-08-17T05:18:04.326Z,98032.96
2018-08-17T05:22:57.463Z,98031.75
2018-08-17T05:27:50.612Z,98039.42
2018-08-17T05:32:43.582Z,98038.56
2018-08-17T05:37:36.523Z,98049.59
2018-08-17T05:42:29.639Z,98043.44
2018-08-17T05:47:22.825Z,98069.14
2018-08-17T05:52:15.838Z,98064.44
2018-08-17T05:57:08.863Z,98061.11
2018-08-17T06:02:02.251Z,98087.64
2018-08-17T06:06:55.434Z,98064.28
2018-08-17T06:11:48.616Z,98072.45
2018-08-17T06:16:42.662Z,98069.63
2018-08-17T06:21:35.694Z,98077.78
2018-08-17T06:26:28.590Z,98077.35
2018-08-17T06:31:22.073Z,98082.32
2018-08-17T06:36:15.149Z,98072.28
2018-08-17T06:41:08.902Z,98088.84
2018-08-17T06:46:01.955Z,98085.64
2018-08-17T06:50:55.023Z,98097.51
2018-08-17T06:55:47.982Z,98102.87
2018-08-17T07:00:41.754Z,98099.88
2018-08-17T07:05:34.825Z,98100.94
2018-08-17T07:10:27.973Z,98109.94
2018-08-17T07:15:21.160Z,98101.34
2018-08-17T07:20:14.187Z,98103.19
2018-08-17T07:25:07.476Z,98115.79
2018-08-17T07:30:00.883Z,98106.11
2018-08-17T07:34:53.940Z,98110.64
2018-08-17T07:39:48.302Z,98114.69
2018-08-17T07:44:41.915Z,98126.19
2018-08-17T07:49:35.258Z,98119.45
2018-08-17T07:54:28.361Z,98131.56
2018-08-17T07:59:21.455Z,98109.91
2018-08-17T08:04:14.429Z,98121.27
2018-08-17T08:09:09.839Z,98115.72
2018-08-17T08:14:06.694Z,98100.39
2018-08-17T08:19:03.231Z,98102.05
2018-08-17T08:23:56.793Z,98093.67
2018-08-17T08:28:49.791Z,98072.14
2018-08-17T08:33:46.345Z,98083.20
2018-08-17T08:38:39.365Z,98082.27
2018-08-17T08:43:32.531Z,98087.56
2018-08-17T08:48:25.619Z,98075.33
2018-08-17T08:53:19.566Z,98072.19
2018-08-17T08:58:12.990Z,98080.70
2018-08-17T09:03:07.554Z,98070.20
2018-08-17T09:08:02.000Z,98083.95
2018-08-17T09:12:55.006Z,98081.81
2018-08-17T09:17:48.106Z,98067.66
2018-08-17T09:22:41.660Z,98059.48
2018-08-17T09:27:35.562Z,98070.30
2018-08-17T09:32:30.545Z,98068.83
2018-08-17T09:37:25.732Z,98072.37
2018-08-17T09:42:18.774Z,98061.31
2018-08-17T09:47:11.732Z,98060.36
2018-08-17T09:52:05.096Z,98048.22
2018-08-17T09:56:58.646Z,98077.78
2018-08-17T10:01:57.323Z,98064.06
2018-08-17T10:06:56.563Z,98078.17
2018-08-17T10:11:50.947Z,98068.88
2018-08-17T10:16:44.127Z,98064.90
2018-08-17T10:21:56.175Z,98082.91
2018-08-17T10:26:49.729Z,98083.38
2018-08-17T10:31:43.311Z,98087.16
2018-08-17T10:36:36.456Z,98081.45
2018-08-17T10:41:29.701Z,98061.91
2018-08-17T10:46:22.756Z,98061.29
2018-08-17T10:51:15.701Z,98069.07
2018-08-17T10:56:08.746Z,98077.75
2018-08-17T11:01:01.896Z,98063.91
2018-08-17T11:05:54.855Z,98051.02
2018-08-17T11:10:47.953Z,98047.95
2018-08-17T11:15:40.900Z,98068.24
2018-08-17T11:20:33.960Z,98053.52
2018-08-17T11:25:27.040Z,98059.17
2018-08-17T11:30:20.260Z,98042.18
2018-08-17T11:35:13.278Z,98039.50
2018-08-17T11:40:07.854Z,98037.36
2018-08-17T11:45:01.355Z,98055.66
2018-08-17T11:49:54.503Z,98038.12
2018-08-17T11:54:47.488Z,98032.33
2018-08-17T12:00:00.445Z,98045.80
2018-08-17T12:04:53.446Z,98041.73
2018-08-17T12:09:51.889Z,98053.08
2018-08-17T12:14:47.225Z,98027.08
2018-08-17T12:19:40.246Z,98017.46
2018-08-17T12:24:33.256Z,98019.25
2018-08-17T12:29:26.556Z,98015.45
2018-08-17T12:34:19.556Z,98030.86
2018-08-17T12:39:12.586Z,97996.58
2018-08-17T12:44:06.039Z,98011.74
2018-08-17T12:48:59.067Z,98035.52
2018-08-17T12:53:52.128Z,97999.50
2018-08-17T12:58:45.154Z,97998.89
2018-08-17T13:03:38.189Z,98008.72
2018-08-17T13:08:31.094Z,97999.76
2018-08-17T13:13:24.045Z,98042.59
2018-08-17T13:18:22.824Z,98052.12
2018-08-17T13:23:15.932Z,98033.59
2018-08-17T13:28:09.013Z,98059.95
2018-08-17T13:33:02.025Z,98024.42
2018-08-17T13:37:55.173Z,98046.09
2018-08-17T13:42:48.294Z,98076.52
2018-08-17T13:47:41.331Z,98060.50
2018-08-17T13:52:34.410Z,98088.70
2018-08-17T13:57:27.682Z,98076.83
2018-08-17T14:02:20.721Z,98073.63
2018-08-17T14:07:13.804Z,98052.66
2018-08-17T14:12:07.896Z,98039.89
2018-08-17T14:17:01.139Z,98011.30
2018-08-17T14:21:54.062Z,98011.95
2018-08-17T14:26:47.255Z,97993.07
2018-08-17T14:31:40.348Z,97996.52
2018-08-17T14:36:33.358Z,97975.75
2018-08-17T14:41:26.354Z,97968.62
2018-08-17T14:46:23.706Z,97968.16
2018-08-17T14:51:16.732Z,97980.56
2018-08-17T14:56:09.628Z,97968.13
2018-08-17T15:01:02.735Z,97980.55
2018-08-17T15:05:55.740Z,97991.77
2018-08-17T15:10:48.860Z,98010.51
2018-08-17T15:15:41.926Z,98030.36
2018-08-17T15:20:36.584Z,98029.23
2018-08-17T15:25:29.649Z,98029.92
2018-08-17T15:30:22.660Z,98026.89
2018-08-17T15:35:15.660Z,98035.39
2018-08-17T15:40:10.747Z,98037.30
2018-08-17T15:45:04.571Z,98036.27
2018-08-17T15:50:28.670Z,98035.39
2018-08-17T15:55:21.900Z,98042.00
2018-08-17T16:00:19.934Z,98046.31
2018-08-17T16:05:12.973Z,98049.34
2018-08-17T16:10:07.547Z,98054.75
2018-08-17T16:15:00.738Z,98046.47
2018-08-17T16:19:54.138Z,98064.45
2018-08-17T16:24:47.218Z,98052.91
2018-08-17T16:29:40.221Z,98078.42
2018-08-17T16:34:33.269Z,98057.68
2018-08-17T16:39:26.395Z,98046.64
2018-08-17T16:44:19.468Z,98062.02
2018-08-17T16:49:12.513Z,98042.39
2018-08-17T16:54:05.814Z,98039.72
2018-08-17T16:58:58.911Z,98038.72
2018-08-17T17:03:52.139Z,98040.97
2018-08-17T17:08:45.029Z,98052.81
2018-08-17T17:13:39.777Z,98057.50
2018-08-17T17:18:32.823Z,98064.31
2018-08-17T17:23:25.893Z,98066.48
2018-08-17T17:28:18.915Z,98061.62
2018-08-17T17:33:12.140Z,98064.84
2018-08-17T17:38:07.731Z,98062.53
2018-08-17T17:43:01.006Z,98076.34
2018-08-17T17:47:54.072Z,98080.19
2018-08-17T17:52:47.160Z,98088.05
2018-08-17T17:57:40.179Z,98099.03
2018-08-17T18:02:33.761Z,98112.19
2018-08-17T18:07:50.363Z,98113.85
2018-08-17T18:12:43.423Z,98119.45
2018-08-17T18:17:36.462Z,98121.30
2018-08-17T18:22:32.049Z,98125.73
2018-08-17T18:27:26.792Z,98122.45
2018-08-17T18:32:19.863Z,98133.61
2018-08-17T18:37:12.954Z,98146.03
2018-08-17T18:42:06.300Z,98152.43
2018-08-17T18:46:59.494Z,98144.09
2018-08-17T18:51:53.794Z,98137.44
2018-08-17T18:57:02.816Z,98149.05
2018-08-17T19:01:56.023Z,98141.72
2018-08-17T19:08:07.661Z,98128.31
2018-08-17T19:13:00.904Z,98142.20
2018-08-17T19:17:54.077Z,98129.33
2018-08-17T19:22:47.176Z,98130.51
2018-08-17T19:27:40.871Z,98143.95
2018-08-17T19:32:33.989Z,98156.33
2018-08-17T19:37:26.933Z,98150.32
2018-08-17T19:42:19.873Z,98145.92
2018-08-17T19:47:12.860Z,98146.44
2018-08-17T19:52:06.233Z,98142.75
2018-08-17T19:56:59.319Z,98138.65
2018-08-17T20:01:52.418Z,98118.60
2018-08-17T20:06:45.752Z,98137.26
2018-08-17T20:11:38.744Z,98144.23
2018-08-17T20:16:31.780Z,98140.09
2018-08-17T20:21:25.637Z,98137.91
2018-08-17T20:26:19.050Z,98148.58
2018-08-17T20:31:11.784Z,98144.28
2018-08-17T20:36:04.869Z,98141.53
2018-08-17T20:40:59.688Z,98142.05
2018-08-17T20:45:52.655Z,98157.27
2018-08-17T20:50:45.658Z,98163.44
2018-08-17T20:55:38.616Z,98165.97
2018-08-17T21:00:31.733Z,98161.14
2018-08-17T21:05:24.840Z,98143.25
2018-08-17T21:10:17.955Z,98153.60
2018-08-17T21:15:10.933Z,98151.00
2018-08-17T21:20:04.752Z,98138.95
2018-08-17T21:24:57.813Z,98145.44
2018-08-17T21:29:50.922Z,98147.70
2018-08-17T21:34:43.841Z,98155.05
2018-08-17T21:39:37.946Z,98135.14
2018-08-17T21:44:30.935Z,98160.55
2018-08-17T21:49:25.276Z,98154.91
2018-08-17T21:54:18.772Z,98137.12
2018-08-17T21:59:11.829Z,98135.05
2018-08-17T22:04:04.864Z,98144.68
2018-08-17T22:08:57.912Z,98191.39
2018-08-17T22:13:51.023Z,98162.78
2018-08-17T22:18:44.063Z,98152.02
2018-08-17T22:23:37.039Z,98144.85
2018-08-17T22:28:30.097Z,98138.11
2018-08-17T22:33:23.202Z,98148.33
2018-08-17T22:38:16.235Z,98155.00
2018-08-17T22:43:09.158Z,98154.16
2018-08-17T22:48:02.123Z,98145.79
2018-08-17T22:52:55.210Z,98130.89
2018-08-17T22:57:48.155Z,98156.66
2018-08-17T23:02:42.265Z,98123.76
2018-08-17T23:07:35.298Z,98143.92
2018-08-17T23:12:28.367Z,98147.45
2018-08-17T23:17:21.502Z,98129.34
2018-08-17T23:22:14.767Z,98117.85
2018-08-17T23:27:07.702Z,98120.14
2018-08-17T23:32:00.894Z,98122.19
2018-08-17T23:36:53.907Z,98114.80
2018-08-17T23:41:47.924Z,98113.20
2018-08-17T23:46:40.954Z,98110.15
2018-08-17T23:51:33.952Z,98115.56
2018-08-17T23:56:27.026Z,98132.64
